sensor_id;sensor_type;location;lat;lon;timestamp;temperature;humidity
27258;DHT22;62045;49.986;8.672;2022-07-17T00:03:58;25.50;42.50
27258;DHT22;62045;49.986;8.672;2022-07-17T00:08:59;25.50;42.50
27258;DHT22;62045;49.986;8.672;2022-07-17T00:14:00;25.40;42.40
27258;DHT22;62045;49.986;8.672;2022-07-17T00:19:02;25.40;43.10
27258;DHT22;62045;49.986;8.672;2022-07-17T00:24:03;25.40;42.50
27258;DHT22;62045;49.986;8.672;2022-07-17T00:29:05;25.40;42.50
27258;DHT22;62045;49.986;8.672;2022-07-17T00:34:08;25.40;42.50
27258;DHT22;62045;49.986;8.672;2022-07-17T00:39:09;25.40;42.50
27258;DHT22;62045;49.986;8.672;2022-07-17T00:44:10;25.50;43.10
27258;DHT22;62045;49.986;8.672;2022-07-17T00:49:13;25.50;42.40
27258;DHT22;62045;49.986;8.672;2022-07-17T00:54:14;25.40;42.40
27258;DHT22;62045;49.986;8.672;2022-07-17T00:59:16;25.40;42.40
27258;DHT22;62045;49.986;8.672;2022-07-17T01:04:19;25.40;42.40
27258;DHT22;62045;49.986;8.672;2022-07-17T01:09:20;25.50;42.40
27258;DHT22;62045;49.986;8.672;2022-07-17T01:14:21;25.40;42.50
27258;DHT22;62045;49.986;8.672;2022-07-17T01:19:23;25.40;42.50
27258;DHT22;62045;49.986;8.672;2022-07-17T01:24:25;25.40;42.50
27258;DHT22;62045;49.986;8.672;2022-07-17T01:29:26;25.40;42.60
27258;DHT22;62045;49.986;8.672;2022-07-17T01:34:27;25.30;42.60
27258;DHT22;62045;49.986;8.672;2022-07-17T01:39:29;25.30;42.50
27258;DHT22;62045;49.986;8.672;2022-07-17T01:44:30;25.30;42.60
27258;DHT22;62045;49.986;8.672;2022-07-17T01:49:31;25.30;43.20
27258;DHT22;62045;49.986;8.672;2022-07-17T01:54:33;25.30;42.60
27258;DHT22;62045;49.986;8.672;2022-07-17T01:59:34;25.30;42.60
27258;DHT22;62045;49.986;8.672;2022-07-17T02:04:36;25.20;42.50
27258;DHT22;62045;49.986;8.672;2022-07-17T02:09:39;25.20;42.60
27258;DHT22;62045;49.986;8.672;2022-07-17T02:14:40;25.20;42.60
27258;DHT22;62045;49.986;8.672;2022-07-17T02:19:41;25.20;42.60
27258;DHT22;62045;49.986;8.672;2022-07-17T02:24:47;25.20;42.60
27258;DHT22;62045;49.986;8.672;2022-07-17T02:29:48;25.10;42.70
27258;DHT22;62045;49.986;8.672;2022-07-17T02:34:49;25.10;42.80
27258;DHT22;62045;49.986;8.672;2022-07-17T02:39:51;25.10;42.80
27258;DHT22;62045;49.986;8.672;2022-07-17T02:44:52;25.20;42.90
27258;DHT22;62045;49.986;8.672;2022-07-17T02:49:53;25.20;42.90
27258;DHT22;62045;49.986;8.672;2022-07-17T02:54:56;25.20;42.90
27258;DHT22;62045;49.986;8.672;2022-07-17T02:59:57;25.20;42.80
27258;DHT22;62045;49.986;8.672;2022-07-17T03:04:57;25.20;42.90
27258;DHT22;62045;49.986;8.672;2022-07-17T03:10:00;25.10;42.80
27258;DHT22;62045;49.986;8.672;2022-07-17T03:15:00;25.10;42.70
27258;DHT22;62045;49.986;8.672;2022-07-17T03:20:02;25.10;42.70
27258;DHT22;62045;49.986;8.672;2022-07-17T03:25:06;25.10;42.60
27258;DHT22;62045;49.986;8.672;2022-07-17T03:30:08;25.00;42.60
27258;DHT22;62045;49.986;8.672;2022-07-17T03:35:09;25.00;42.60
27258;DHT22;62045;49.986;8.672;2022-07-17T03:40:12;25.00;42.60
27258;DHT22;62045;49.986;8.672;2022-07-17T03:45:12;24.90;42.60
27258;DHT22;62045;49.986;8.672;2022-07-17T03:50:13;24.90;42.60
27258;DHT22;62045;49.986;8.672;2022-07-17T03:55:16;24.90;42.60
27258;DHT22;62045;49.986;8.672;2022-07-17T04:00:17;24.90;42.60
27258;DHT22;62045;49.986;8.672;2022-07-17T04:05:17;24.90;42.70
27258;DHT22;62045;49.986;8.672;2022-07-17T04:10:20;24.80;42.60
27258;DHT22;62045;49.986;8.672;2022-07-17T04:15:20;24.80;42.70
27258;DHT22;62045;49.986;8.672;2022-07-17T04:20:21;24.80;42.70
27258;DHT22;62045;49.986;8.672;2022-07-17T04:25:24;24.80;42.70
27258;DHT22;62045;49.986;8.672;2022-07-17T04:30:25;24.80;42.80
27258;DHT22;62045;49.986;8.672;2022-07-17T04:35:26;24.80;42.80
27258;DHT22;62045;49.986;8.672;2022-07-17T04:40:28;24.80;42.80
27258;DHT22;62045;49.986;8.672;2022-07-17T04:45:30;24.80;42.80
27258;DHT22;62045;49.986;8.672;2022-07-17T04:50:31;24.80;42.80
27258;DHT22;62045;49.986;8.672;2022-07-17T04:55:33;24.80;42.80
27258;DHT22;62045;49.986;8.672;2022-07-17T05:00:34;24.80;43.50
27258;DHT22;62045;49.986;8.672;2022-07-17T05:05:34;24.80;42.80
27258;DHT22;62045;49.986;8.672;2022-07-17T05:10:37;24.80;42.80
27258;DHT22;62045;49.986;8.672;2022-07-17T05:15:38;24.80;42.70
27258;DHT22;62045;49.986;8.672;2022-07-17T05:20:40;24.80;42.70
27258;DHT22;62045;49.986;8.672;2022-07-17T05:25:43;24.80;42.70
27258;DHT22;62045;49.986;8.672;2022-07-17T05:30:43;24.70;42.60
27258;DHT22;62045;49.986;8.672;2022-07-17T05:35:44;24.70;42.70
27258;DHT22;62045;49.986;8.672;2022-07-17T05:40:46;24.70;42.70
27258;DHT22;62045;49.986;8.672;2022-07-17T05:45:47;24.70;42.70
27258;DHT22;62045;49.986;8.672;2022-07-17T05:50:48;24.70;42.80
27258;DHT22;62045;49.986;8.672;2022-07-17T05:55:50;24.60;42.80
27258;DHT22;62045;49.986;8.672;2022-07-17T06:00:51;24.60;42.80
27258;DHT22;62045;49.986;8.672;2022-07-17T06:05:52;24.60;42.90
27258;DHT22;62045;49.986;8.672;2022-07-17T06:10:54;24.60;42.90
27258;DHT22;62045;49.986;8.672;2022-07-17T06:15:55;24.60;42.90
27258;DHT22;62045;49.986;8.672;2022-07-17T06:20:56;24.60;42.70
27258;DHT22;62045;49.986;8.672;2022-07-17T06:25:58;24.60;42.70
27258;DHT22;62045;49.986;8.672;2022-07-17T06:30:59;24.60;42.70
27258;DHT22;62045;49.986;8.672;2022-07-17T06:36:00;24.60;42.60
27258;DHT22;62045;49.986;8.672;2022-07-17T06:41:02;24.60;42.50
27258;DHT22;62045;49.986;8.672;2022-07-17T06:46:03;24.70;42.50
27258;DHT22;62045;49.986;8.672;2022-07-17T06:51:04;24.70;42.50
27258;DHT22;62045;49.986;8.672;2022-07-17T06:56:07;24.70;42.40
27258;DHT22;62045;49.986;8.672;2022-07-17T07:01:08;24.70;42.40
27258;DHT22;62045;49.986;8.672;2022-07-17T07:06:08;24.80;42.40
27258;DHT22;62045;49.986;8.672;2022-07-17T07:11:11;24.80;42.30
27258;DHT22;62045;49.986;8.672;2022-07-17T07:16:12;24.80;42.30
27258;DHT22;62045;49.986;8.672;2022-07-17T07:21:13;24.80;42.30
27258;DHT22;62045;49.986;8.672;2022-07-17T07:26:15;24.80;42.40
27258;DHT22;62045;49.986;8.672;2022-07-17T07:31:16;24.70;42.30
27258;DHT22;62045;49.986;8.672;2022-07-17T07:36:17;24.70;42.20
27258;DHT22;62045;49.986;8.672;2022-07-17T07:41:19;24.70;42.20
27258;DHT22;62045;49.986;8.672;2022-07-17T07:46:20;24.70;42.10
27258;DHT22;62045;49.986;8.672;2022-07-17T07:51:21;24.70;42.20
27258;DHT22;62045;49.986;8.672;2022-07-17T07:56:23;24.70;42.20
27258;DHT22;62045;49.986;8.672;2022-07-17T08:01:24;24.70;42.10
27258;DHT22;62045;49.986;8.672;2022-07-17T08:06:25;24.70;41.90
27258;DHT22;62045;49.986;8.672;2022-07-17T08:11:27;24.70;41.60
27258;DHT22;62045;49.986;8.672;2022-07-17T08:16:30;24.60;41.10
27258;DHT22;62045;49.986;8.672;2022-07-17T08:21:30;24.60;40.70
27258;DHT22;62045;49.986;8.672;2022-07-17T08:26:33;24.60;40.40
27258;DHT22;62045;49.986;8.672;2022-07-17T08:31:34;24.60;40.20
27258;DHT22;62045;49.986;8.672;2022-07-17T08:36:35;24.60;39.80
27258;DHT22;62045;49.986;8.672;2022-07-17T08:41:38;24.60;39.80
27258;DHT22;62045;49.986;8.672;2022-07-17T08:46:39;24.70;39.70
27258;DHT22;62045;49.986;8.672;2022-07-17T08:51:43;24.60;39.50
27258;DHT22;62045;49.986;8.672;2022-07-17T08:56:45;24.70;39.40
27258;DHT22;62045;49.986;8.672;2022-07-17T09:01:46;24.70;39.40
27258;DHT22;62045;49.986;8.672;2022-07-17T09:06:58;24.70;39.10
27258;DHT22;62045;49.986;8.672;2022-07-17T09:12:01;24.60;38.70
27258;DHT22;62045;49.986;8.672;2022-07-17T09:17:03;24.60;38.40
27258;DHT22;62045;49.986;8.672;2022-07-17T09:22:06;24.60;38.30
27258;DHT22;62045;49.986;8.672;2022-07-17T09:27:09;24.60;38.20
27258;DHT22;62045;49.986;8.672;2022-07-17T09:32:11;24.60;38.10
27258;DHT22;62045;49.986;8.672;2022-07-17T09:37:17;24.60;37.90
27258;DHT22;62045;49.986;8.672;2022-07-17T09:42:27;24.50;37.50
27258;DHT22;62045;49.986;8.672;2022-07-17T09:47:30;24.50;37.60
27258;DHT22;62045;49.986;8.672;2022-07-17T09:52:34;24.50;37.60
27258;DHT22;62045;49.986;8.672;2022-07-17T09:57:40;24.50;37.60
27258;DHT22;62045;49.986;8.672;2022-07-17T10:02:41;24.50;37.40
27258;DHT22;62045;49.986;8.672;2022-07-17T10:07:42;24.50;37.40
27258;DHT22;62045;49.986;8.672;2022-07-17T10:12:47;24.50;37.40
27258;DHT22;62045;49.986;8.672;2022-07-17T10:17:48;24.50;37.20
27258;DHT22;62045;49.986;8.672;2022-07-17T10:22:49;24.50;37.10
27258;DHT22;62045;49.986;8.672;2022-07-17T10:27:54;24.50;36.80
27258;DHT22;62045;49.986;8.672;2022-07-17T10:32:57;24.50;36.60
27258;DHT22;62045;49.986;8.672;2022-07-17T10:38:09;24.50;36.30
27258;DHT22;62045;49.986;8.672;2022-07-17T10:43:12;24.50;35.60
27258;DHT22;62045;49.986;8.672;2022-07-17T10:48:14;24.60;36.00
27258;DHT22;62045;49.986;8.672;2022-07-17T10:53:17;24.60;36.30
27258;DHT22;62045;49.986;8.672;2022-07-17T10:58:22;24.60;36.30
27258;DHT22;62045;49.986;8.672;2022-07-17T11:03:24;24.70;36.40
27258;DHT22;62045;49.986;8.672;2022-07-17T11:08:24;24.70;36.50
27258;DHT22;62045;49.986;8.672;2022-07-17T11:13:27;24.70;36.40
27258;DHT22;62045;49.986;8.672;2022-07-17T11:18:29;24.60;36.40
27258;DHT22;62045;49.986;8.672;2022-07-17T11:23:31;24.60;36.40
27258;DHT22;62045;49.986;8.672;2022-07-17T11:28:36;24.60;36.50
27258;DHT22;62045;49.986;8.672;2022-07-17T11:33:37;24.60;36.50
27258;DHT22;62045;49.986;8.672;2022-07-17T11:38:38;24.60;36.50
27258;DHT22;62045;49.986;8.672;2022-07-17T11:43:41;24.60;36.50
27258;DHT22;62045;49.986;8.672;2022-07-17T11:48:42;24.60;36.40
27258;DHT22;62045;49.986;8.672;2022-07-17T11:53:43;24.60;36.40
27258;DHT22;62045;49.986;8.672;2022-07-17T11:58:47;24.60;36.30
27258;DHT22;62045;49.986;8.672;2022-07-17T12:03:56;24.60;36.20
27258;DHT22;62045;49.986;8.672;2022-07-17T12:08:57;24.60;36.10
27258;DHT22;62045;49.986;8.672;2022-07-17T12:14:05;24.60;36.10
27258;DHT22;62045;49.986;8.672;2022-07-17T12:19:09;24.60;36.00
27258;DHT22;62045;49.986;8.672;2022-07-17T12:24:10;24.60;36.20
27258;DHT22;62045;49.986;8.672;2022-07-17T12:29:12;24.60;36.40
27258;DHT22;62045;49.986;8.672;2022-07-17T12:34:13;24.60;36.40
27258;DHT22;62045;49.986;8.672;2022-07-17T12:39:14;24.70;36.40
27258;DHT22;62045;49.986;8.672;2022-07-17T12:44:16;24.70;36.40
27258;DHT22;62045;49.986;8.672;2022-07-17T12:49:17;24.80;36.50
27258;DHT22;62045;49.986;8.672;2022-07-17T12:54:18;24.80;36.50
27258;DHT22;62045;49.986;8.672;2022-07-17T12:59:20;24.80;36.50
27258;DHT22;62045;49.986;8.672;2022-07-17T13:04:21;24.80;36.40
27258;DHT22;62045;49.986;8.672;2022-07-17T13:09:22;24.80;36.40
27258;DHT22;62045;49.986;8.672;2022-07-17T13:14:25;24.80;36.40
27258;DHT22;62045;49.986;8.672;2022-07-17T13:19:26;24.80;36.30
27258;DHT22;62045;49.986;8.672;2022-07-17T13:24:26;24.80;36.30
27258;DHT22;62045;49.986;8.672;2022-07-17T13:29:29;24.80;35.10
27258;DHT22;62045;49.986;8.672;2022-07-17T13:34:30;24.90;35.30
27258;DHT22;62045;49.986;8.672;2022-07-17T13:39:30;25.10;31.80
27258;DHT22;62045;49.986;8.672;2022-07-17T13:44:33;25.20;30.80
27258;DHT22;62045;49.986;8.672;2022-07-17T13:49:34;25.30;30.60
27258;DHT22;62045;49.986;8.672;2022-07-17T13:54:34;25.30;30.00
27258;DHT22;62045;49.986;8.672;2022-07-17T13:59:37;25.30;29.40
27258;DHT22;62045;49.986;8.672;2022-07-17T14:04:37;25.30;29.10
27258;DHT22;62045;49.986;8.672;2022-07-17T14:09:38;25.20;28.60
27258;DHT22;62045;49.986;8.672;2022-07-17T14:14:41;25.30;28.30
27258;DHT22;62045;49.986;8.672;2022-07-17T14:19:42;25.20;27.70
27258;DHT22;62045;49.986;8.672;2022-07-17T14:24:43;25.30;27.30
27258;DHT22;62045;49.986;8.672;2022-07-17T14:29:45;25.30;26.80
27258;DHT22;62045;49.986;8.672;2022-07-17T14:34:46;25.30;26.50
27258;DHT22;62045;49.986;8.672;2022-07-17T14:39:46;25.30;26.00
27258;DHT22;62045;49.986;8.672;2022-07-17T14:44:49;25.30;25.60
27258;DHT22;62045;49.986;8.672;2022-07-17T14:49:50;25.40;25.40
27258;DHT22;62045;49.986;8.672;2022-07-17T14:54:50;25.40;25.60
27258;DHT22;62045;49.986;8.672;2022-07-17T14:59:53;25.50;25.60
27258;DHT22;62045;49.986;8.672;2022-07-17T15:04:54;25.50;25.30
27258;DHT22;62045;49.986;8.672;2022-07-17T15:09:54;25.50;25.00
27258;DHT22;62045;49.986;8.672;2022-07-17T15:14:57;25.60;24.90
27258;DHT22;62045;49.986;8.672;2022-07-17T15:19:57;25.60;24.50
27258;DHT22;62045;49.986;8.672;2022-07-17T15:24:58;25.60;24.70
27258;DHT22;62045;49.986;8.672;2022-07-17T15:30:01;25.60;24.50
27258;DHT22;62045;49.986;8.672;2022-07-17T15:35:02;25.60;24.50
27258;DHT22;62045;49.986;8.672;2022-07-17T15:40:05;25.70;24.60
27258;DHT22;62045;49.986;8.672;2022-07-17T15:45:08;25.70;24.60
27258;DHT22;62045;49.986;8.672;2022-07-17T15:50:09;25.70;24.70
27258;DHT22;62045;49.986;8.672;2022-07-17T15:55:10;25.80;24.80
27258;DHT22;62045;49.986;8.672;2022-07-17T16:00:13;25.80;25.20
27258;DHT22;62045;49.986;8.672;2022-07-17T16:05:13;25.70;25.90
27258;DHT22;62045;49.986;8.672;2022-07-17T16:10:14;25.70;26.50
27258;DHT22;62045;49.986;8.672;2022-07-17T16:15:17;25.70;26.90
27258;DHT22;62045;49.986;8.672;2022-07-17T16:20:18;25.60;27.20
27258;DHT22;62045;49.986;8.672;2022-07-17T16:25:19;25.60;27.60
27258;DHT22;62045;49.986;8.672;2022-07-17T16:30:22;25.70;28.00
27258;DHT22;62045;49.986;8.672;2022-07-17T16:35:23;25.70;28.20
27258;DHT22;62045;49.986;8.672;2022-07-17T16:40:24;25.70;28.50
27258;DHT22;62045;49.986;8.672;2022-07-17T16:45:26;25.80;28.60
27258;DHT22;62045;49.986;8.672;2022-07-17T16:50:27;25.80;28.80
27258;DHT22;62045;49.986;8.672;2022-07-17T16:55:28;25.80;28.90
27258;DHT22;62045;49.986;8.672;2022-07-17T17:00:30;25.90;29.10
27258;DHT22;62045;49.986;8.672;2022-07-17T17:05:31;25.80;29.10
27258;DHT22;62045;49.986;8.672;2022-07-17T17:10:32;25.90;29.30
27258;DHT22;62045;49.986;8.672;2022-07-17T17:15:35;25.90;29.40
27258;DHT22;62045;49.986;8.672;2022-07-17T17:20:35;25.90;29.50
27258;DHT22;62045;49.986;8.672;2022-07-17T17:25:36;25.90;29.70
27258;DHT22;62045;49.986;8.672;2022-07-17T17:30:39;25.90;29.80
27258;DHT22;62045;49.986;8.672;2022-07-17T17:35:39;25.90;30.00
27258;DHT22;62045;49.986;8.672;2022-07-17T17:40:40;25.90;30.00
27258;DHT22;62045;49.986;8.672;2022-07-17T17:45:42;25.90;30.10
27258;DHT22;62045;49.986;8.672;2022-07-17T17:50:43;25.90;30.30
27258;DHT22;62045;49.986;8.672;2022-07-17T17:55:44;25.90;30.40
27258;DHT22;62045;49.986;8.672;2022-07-17T18:00:47;25.90;30.60
27258;DHT22;62045;49.986;8.672;2022-07-17T18:05:47;25.90;30.90
27258;DHT22;62045;49.986;8.672;2022-07-17T18:10:48;25.90;31.00
27258;DHT22;62045;49.986;8.672;2022-07-17T18:15:51;25.90;31.10
27258;DHT22;62045;49.986;8.672;2022-07-17T18:20:52;25.90;31.30
27258;DHT22;62045;49.986;8.672;2022-07-17T18:25:52;26.00;31.60
27258;DHT22;62045;49.986;8.672;2022-07-17T18:30:55;26.00;31.70
27258;DHT22;62045;49.986;8.672;2022-07-17T18:35:56;26.00;31.80
27258;DHT22;62045;49.986;8.672;2022-07-17T18:40:57;26.00;31.80
27258;DHT22;62045;49.986;8.672;2022-07-17T18:45:59;26.10;32.00
27258;DHT22;62045;49.986;8.672;2022-07-17T18:51:00;26.10;32.10
27258;DHT22;62045;49.986;8.672;2022-07-17T18:56:01;26.10;32.20
27258;DHT22;62045;49.986;8.672;2022-07-17T19:01:03;26.10;32.30
27258;DHT22;62045;49.986;8.672;2022-07-17T19:06:04;26.10;32.40
27258;DHT22;62045;49.986;8.672;2022-07-17T19:11:06;26.10;32.40
27258;DHT22;62045;49.986;8.672;2022-07-17T19:16:08;26.10;32.50
27258;DHT22;62045;49.986;8.672;2022-07-17T19:21:09;26.10;32.60
27258;DHT22;62045;49.986;8.672;2022-07-17T19:26:10;26.00;32.70
27258;DHT22;62045;49.986;8.672;2022-07-17T19:31:12;26.00;32.80
27258;DHT22;62045;49.986;8.672;2022-07-17T19:36:13;26.00;33.00
27258;DHT22;62045;49.986;8.672;2022-07-17T19:41:14;26.00;33.10
27258;DHT22;62045;49.986;8.672;2022-07-17T19:46:16;26.00;33.40
27258;DHT22;62045;49.986;8.672;2022-07-17T19:51:17;26.00;34.30
27258;DHT22;62045;49.986;8.672;2022-07-17T19:56:18;26.10;47.20
27258;DHT22;62045;49.986;8.672;2022-07-17T20:01:22;26.30;56.00
27258;DHT22;62045;49.986;8.672;2022-07-17T20:06:23;26.30;50.50
27258;DHT22;62045;49.986;8.672;2022-07-17T20:11:24;26.30;45.20
27258;DHT22;62045;49.986;8.672;2022-07-17T20:16:27;26.30;43.50
27258;DHT22;62045;49.986;8.672;2022-07-17T20:21:28;26.30;42.70
27258;DHT22;62045;49.986;8.672;2022-07-17T20:26:29;26.40;42.10
27258;DHT22;62045;49.986;8.672;2022-07-17T20:31:31;26.40;41.50
27258;DHT22;62045;49.986;8.672;2022-07-17T20:36:32;26.40;41.10
27258;DHT22;62045;49.986;8.672;2022-07-17T20:41:33;26.40;40.70
27258;DHT22;62045;49.986;8.672;2022-07-17T20:46:35;26.30;40.40
27258;DHT22;62045;49.986;8.672;2022-07-17T20:51:36;26.40;40.20
27258;DHT22;62045;49.986;8.672;2022-07-17T20:56:37;26.40;40.00
27258;DHT22;62045;49.986;8.672;2022-07-17T21:01:39;26.30;39.80
27258;DHT22;62045;49.986;8.672;2022-07-17T21:06:40;26.30;39.70
27258;DHT22;62045;49.986;8.672;2022-07-17T21:11:42;26.30;39.60
27258;DHT22;62045;49.986;8.672;2022-07-17T21:16:44;26.20;39.50
27258;DHT22;62045;49.986;8.672;2022-07-17T21:21:45;26.20;39.50
27258;DHT22;62045;49.986;8.672;2022-07-17T21:26:46;26.20;39.40
27258;DHT22;62045;49.986;8.672;2022-07-17T21:31:48;26.20;39.30
27258;DHT22;62045;49.986;8.672;2022-07-17T21:36:49;26.20;39.30
27258;DHT22;62045;49.986;8.672;2022-07-17T21:41:50;26.10;39.20
27258;DHT22;62045;49.986;8.672;2022-07-17T21:46:52;26.10;39.20
27258;DHT22;62045;49.986;8.672;2022-07-17T21:51:53;26.10;39.10
27258;DHT22;62045;49.986;8.672;2022-07-17T21:56:54;26.10;39.00
27258;DHT22;62045;49.986;8.672;2022-07-17T22:01:57;26.10;39.10
27258;DHT22;62045;49.986;8.672;2022-07-17T22:06:58;26.10;39.00
27258;DHT22;62045;49.986;8.672;2022-07-17T22:11:59;26.10;39.00
27258;DHT22;62045;49.986;8.672;2022-07-17T22:17:02;26.10;38.90
27258;DHT22;62045;49.986;8.672;2022-07-17T22:22:04;26.10;38.90
27258;DHT22;62045;49.986;8.672;2022-07-17T22:27:05;26.10;38.80
27258;DHT22;62045;49.986;8.672;2022-07-17T22:32:09;26.20;38.80
27258;DHT22;62045;49.986;8.672;2022-07-17T22:37:11;26.20;38.80
27258;DHT22;62045;49.986;8.672;2022-07-17T22:42:12;26.10;38.70
27258;DHT22;62045;49.986;8.672;2022-07-17T22:47:14;26.10;38.70
27258;DHT22;62045;49.986;8.672;2022-07-17T22:52:15;26.10;38.70
27258;DHT22;62045;49.986;8.672;2022-07-17T22:57:16;26.10;38.70
27258;DHT22;62045;49.986;8.672;2022-07-17T23:02:18;26.00;38.60
27258;DHT22;62045;49.986;8.672;2022-07-17T23:07:19;26.00;38.70
27258;DHT22;62045;49.986;8.672;2022-07-17T23:12:21;26.00;38.70
27258;DHT22;62045;49.986;8.672;2022-07-17T23:17:23;26.00;38.70
27258;DHT22;62045;49.986;8.672;2022-07-17T23:22:24;26.00;38.70
27258;DHT22;62045;49.986;8.672;2022-07-17T23:27:25;26.00;38.70
27258;DHT22;62045;49.986;8.672;2022-07-17T23:32:27;26.00;38.70
27258;DHT22;62045;49.986;8.672;2022-07-17T23:37:29;25.90;38.70
27258;DHT22;62045;49.986;8.672;2022-07-17T23:42:30;25.90;38.70
27258;DHT22;62045;49.986;8.672;2022-07-17T23:47:33;25.90;38.80
27258;DHT22;62045;49.986;8.672;2022-07-17T23:52:34;25.90;38.80
27258;DHT22;62045;49.986;8.672;2022-07-17T23:57:34;25.90;38.70
